Time;durP1;ratioP1;P1;durP2;ratioP2;P2;SDS_P1;SDS_P2;PMS_P1;PMS_P2;Temp;Humidity;BMP_temperature;BMP_pressure;BME280_temperature;BME280_humidity;BME280_pressure;Samples;Min_cycle;Max_cycle;Signal;HPM_P1;HPM_P2
2024/01/01 00:01:42;;;;;;;20.50;14.77;;;8.70;99.90;;;;;;4893419;29;20726;-79
2024/01/01 00:04:08;;;;;;;21.23;15.63;;;8.70;99.90;;;;;;4914429;29;20614;-78
2024/01/01 00:06:34;;;;;;;23.27;15.13;;;8.70;99.90;;;;;;4915179;29;20446;-78
2024/01/01 00:09:00;;;;;;;17.40;13.70;;;8.70;99.90;;;;;;4892977;29;20431;-77
2024/01/01 00:11:26;;;;;;;16.47;12.80;;;8.70;99.90;;;;;;4909165;29;20229;-78
2024/01/01 00:13:52;;;;;;;16.73;11.53;;;8.70;99.90;;;;;;4916068;29;20419;-78
2024/01/01 00:16:17;;;;;;;13.50;9.80;;;8.70;99.90;;;;;;4905406;29;20207;-79
2024/01/01 00:18:43;;;;;;;17.83;9.60;;;8.70;99.90;;;;;;4894187;29;20179;-78
2024/01/01 00:21:09;;;;;;;16.13;9.77;;;8.70;99.70;;;;;;4882775;29;20176;-79
2024/01/01 00:23:35;;;;;;;8.87;6.90;;;8.70;99.60;;;;;;4906804;29;20395;-79
2024/01/01 00:26:01;;;;;;;14.77;6.90;;;8.70;99.60;;;;;;4891486;29;20817;-78
2024/01/01 00:28:26;;;;;;;12.23;5.83;;;8.60;99.50;;;;;;4885363;29;20201;-79
2024/01/01 00:30:52;;;;;;;10.10;5.43;;;8.60;99.30;;;;;;4900915;29;20172;-77
2024/01/01 00:33:18;;;;;;;8.20;4.73;;;8.70;99.20;;;;;;4908300;29;20183;-79
2024/01/01 00:35:44;;;;;;;10.70;5.20;;;8.60;99.00;;;;;;4910050;29;20415;-77
2024/01/01 00:38:10;;;;;;;10.80;4.40;;;8.60;99.00;;;;;;4915535;29;20183;-78
2024/01/01 00:40:37;;;;;;;12.93;5.10;;;8.60;98.60;;;;;;4889996;29;20422;-80
2024/01/01 00:43:02;;;;;;;9.90;4.80;;;8.60;98.60;;;;;;4913926;29;20179;-78
2024/01/01 00:45:28;;;;;;;5.37;3.27;;;8.60;98.50;;;;;;4892493;29;20467;-77
2024/01/01 00:47:54;;;;;;;6.80;3.60;;;8.50;98.50;;;;;;4913217;29;20457;-77
2024/01/01 00:50:21;;;;;;;6.47;3.50;;;8.50;98.30;;;;;;4897055;29;20179;-78
2024/01/01 00:52:46;;;;;;;4.77;3.10;;;8.40;98.00;;;;;;4909540;29;20175;-77
2024/01/01 00:55:12;;;;;;;5.63;2.87;;;8.40;98.00;;;;;;4889776;29;20499;-77
2024/01/01 00:57:38;;;;;;;8.93;3.47;;;8.40;97.90;;;;;;4909811;29;20183;-76
2024/01/01 01:00:04;;;;;;;5.83;2.30;;;8.40;97.60;;;;;;4903217;29;20183;-78
2024/01/01 01:02:30;;;;;;;7.50;3.63;;;8.40;97.40;;;;;;4899848;29;20180;-77
2024/01/01 01:04:56;;;;;;;7.33;4.23;;;8.40;97.40;;;;;;4901045;29;20448;-78
2024/01/01 01:07:22;;;;;;;7.67;3.90;;;8.40;97.40;;;;;;4909806;29;20215;-77
2024/01/01 01:09:47;;;;;;;6.27;3.20;;;8.40;97.30;;;;;;4906005;29;20211;-78
2024/01/01 01:12:16;;;;;;;4.63;2.40;;;8.50;97.20;;;;;;4902240;29;20194;-77
2024/01/01 01:14:42;;;;;;;11.80;4.07;;;8.60;96.80;;;;;;4899082;29;20251;-78
2024/01/01 01:17:08;;;;;;;5.80;3.20;;;8.60;96.60;;;;;;4901913;29;20447;-78
2024/01/01 01:19:34;;;;;;;4.27;2.27;;;8.60;96.40;;;;;;4904791;29;20424;-76
2024/01/01 01:21:59;;;;;;;5.03;2.60;;;8.60;96.20;;;;;;4899640;29;20746;-78
2024/01/01 01:24:25;;;;;;;6.63;2.70;;;8.70;95.70;;;;;;4903377;29;20187;-76
2024/01/01 01:26:51;;;;;;;4.50;2.30;;;8.60;95.70;;;;;;4898552;29;20222;-77
2024/01/01 01:29:17;;;;;;;9.13;2.67;;;8.60;95.60;;;;;;4914368;29;20184;-77
2024/01/01 01:31:45;;;;;;;4.80;2.40;;;8.60;95.60;;;;;;4880475;29;20192;-77
2024/01/01 01:34:11;;;;;;;8.30;2.70;;;8.60;95.90;;;;;;4894927;29;20437;-79
2024/01/01 01:36:38;;;;;;;5.87;2.40;;;8.60;95.40;;;;;;4886030;29;20468;-79
2024/01/01 01:39:04;;;;;;;4.30;2.40;;;8.70;94.90;;;;;;4892105;29;20443;-78
2024/01/01 01:41:29;;;;;;;6.37;2.30;;;8.60;94.80;;;;;;4903407;29;20420;-77
2024/01/01 01:43:55;;;;;;;9.03;2.47;;;8.70;94.40;;;;;;4892488;29;20182;-77
2024/01/01 01:46:21;;;;;;;3.50;1.97;;;8.70;94.20;;;;;;4905546;29;20252;-75
2024/01/01 01:48:47;;;;;;;5.90;2.40;;;8.70;94.10;;;;;;4900066;29;20266;-78
2024/01/01 01:51:12;;;;;;;9.53;2.60;;;8.70;94.10;;;;;;4907150;29;20410;-77
2024/01/01 01:53:39;;;;;;;6.63;2.53;;;8.70;93.70;;;;;;4905399;29;20183;-75
2024/01/01 01:56:07;;;;;;;7.70;3.20;;;8.70;93.70;;;;;;4889113;29;20219;-75
2024/01/01 01:58:34;;;;;;;5.33;2.77;;;8.70;93.70;;;;;;4900608;29;20440;-75
2024/01/01 02:01:00;;;;;;;5.70;2.90;;;8.70;93.70;;;;;;4864748;29;20421;-76
2024/01/01 02:03:25;;;;;;;8.37;1.93;;;8.70;93.60;;;;;;4880504;29;20428;-74
2024/01/01 02:05:51;;;;;;;4.73;2.17;;;8.70;93.50;;;;;;4895664;29;20219;-76
2024/01/01 02:08:18;;;;;;;11.23;2.50;;;8.70;93.50;;;;;;4907459;29;20274;-78
2024/01/01 02:10:44;;;;;;;14.30;3.10;;;8.70;93.50;;;;;;4883847;29;20422;-77
2024/01/01 02:13:30;;;;;;;8.13;2.73;;;8.70;93.40;;;;;;4914886;29;20436;-79
2024/01/01 02:15:56;;;;;;;6.77;2.13;;;8.70;93.30;;;;;;4904324;29;20938;-77
2024/01/01 02:18:22;;;;;;;9.70;1.83;;;8.70;93.80;;;;;;4906128;29;20427;-76
2024/01/01 02:20:48;;;;;;;7.30;2.43;;;8.60;94.30;;;;;;4905518;29;20518;-76
2024/01/01 02:23:18;;;;;;;9.00;2.77;;;8.60;95.10;;;;;;4909465;29;20463;-76
2024/01/01 02:25:44;;;;;;;6.60;2.53;;;8.60;96.20;;;;;;4875944;29;20243;-75
2024/01/01 02:28:11;;;;;;;8.20;2.43;;;8.50;96.60;;;;;;4889360;29;20462;-76
2024/01/01 02:30:37;;;;;;;7.77;2.40;;;8.40;98.00;;;;;;4888407;29;20728;-75
2024/01/01 02:33:07;;;;;;;9.53;2.23;;;8.20;99.30;;;;;;4899888;29;20452;-75
2024/01/01 02:35:33;;;;;;;12.47;2.13;;;8.00;99.90;;;;;;4887093;29;20638;-76
2024/01/01 02:37:59;;;;;;;11.00;3.13;;;7.80;99.90;;;;;;4895091;29;20490;-78
2024/01/01 02:40:25;;;;;;;9.13;3.10;;;7.60;99.90;;;;;;4910296;29;20423;-74
2024/01/01 02:42:50;;;;;;;11.40;2.33;;;7.50;99.90;;;;;;4908292;29;20568;-78
2024/01/01 02:45:17;;;;;;;11.67;2.87;;;7.30;99.90;;;;;;4903986;29;20215;-76
2024/01/01 02:47:43;;;;;;;7.00;2.23;;;7.20;99.90;;;;;;4870588;29;20632;-75
2024/01/01 02:50:09;;;;;;;6.40;2.60;;;7.10;99.90;;;;;;4904959;29;20474;-76
2024/01/01 02:52:35;;;;;;;13.53;3.40;;;7.00;99.90;;;;;;4893721;29;20258;-78
2024/01/01 02:55:00;;;;;;;8.20;3.30;;;6.90;99.90;;;;;;4874925;29;20423;-75
2024/01/01 02:57:26;;;;;;;14.50;3.57;;;6.80;99.90;;;;;;4887357;29;20195;-77
2024/01/01 02:59:52;;;;;;;11.63;2.80;;;6.70;99.90;;;;;;4895054;29;20564;-78
2024/01/01 03:02:18;;;;;;;4.10;2.27;;;6.60;99.90;;;;;;4888307;29;20289;-76
2024/01/01 03:04:44;;;;;;;6.70;2.27;;;6.60;99.90;;;;;;4885061;29;20196;-76
2024/01/01 03:07:10;;;;;;;5.23;1.60;;;6.50;99.90;;;;;;4885034;29;20467;-77
2024/01/01 03:09:36;;;;;;;5.40;1.70;;;6.40;99.90;;;;;;4901400;29;20955;-77
2024/01/01 03:12:03;;;;;;;5.60;1.97;;;6.40;99.90;;;;;;4885376;29;20420;-79
2024/01/01 03:14:29;;;;;;;5.20;1.87;;;6.40;99.90;;;;;;4892676;29;20290;-77
2024/01/01 03:16:56;;;;;;;5.73;2.87;;;6.40;99.90;;;;;;4870402;29;21017;-77
2024/01/01 03:19:22;;;;;;;3.60;1.70;;;6.30;99.90;;;;;;4889793;29;20423;-77
2024/01/01 03:21:48;;;;;;;8.20;1.70;;;6.20;99.90;;;;;;4865659;29;20448;-76
2024/01/01 03:24:13;;;;;;;6.17;1.40;;;6.30;99.90;;;;;;4893392;29;20184;-75
2024/01/01 03:26:39;;;;;;;4.47;1.27;;;6.30;99.90;;;;;;4859277;29;20220;-76
2024/01/01 03:29:04;;;;;;;4.83;1.60;;;6.20;99.90;;;;;;4855838;29;20193;-75
2024/01/01 03:31:30;;;;;;;5.43;2.10;;;6.20;99.90;;;;;;4862327;29;20189;-77
2024/01/01 03:33:56;;;;;;;4.07;1.77;;;6.20;99.90;;;;;;4861745;29;20191;-77
2024/01/01 03:36:21;;;;;;;5.10;1.40;;;6.20;99.90;;;;;;4869782;29;20243;-76
2024/01/01 03:38:47;;;;;;;7.23;2.17;;;6.20;99.90;;;;;;4860031;29;20229;-77
2024/01/01 03:41:12;;;;;;;9.23;2.00;;;6.20;99.90;;;;;;4864617;29;20249;-77
2024/01/01 03:43:38;;;;;;;5.17;2.43;;;6.20;99.90;;;;;;4871612;29;20188;-75
2024/01/01 03:46:04;;;;;;;5.50;2.30;;;6.20;99.90;;;;;;4833824;29;20318;-79
2024/01/01 03:48:29;;;;;;;5.13;1.63;;;6.20;99.90;;;;;;4866957;29;20247;-75
2024/01/01 03:50:55;;;;;;;5.03;1.63;;;6.20;99.90;;;;;;4866470;29;20247;-76
2024/01/01 03:53:21;;;;;;;5.70;1.93;;;6.10;99.90;;;;;;4870179;29;20284;-75
2024/01/01 03:55:47;;;;;;;4.00;1.67;;;6.10;99.90;;;;;;4867447;29;20236;-76
2024/01/01 03:58:13;;;;;;;6.40;1.93;;;6.10;99.90;;;;;;4881797;29;20272;-74
2024/01/01 04:00:39;;;;;;;11.10;1.83;;;6.10;99.90;;;;;;4902006;29;20437;-76
2024/01/01 04:03:05;;;;;;;3.63;1.90;;;6.10;99.90;;;;;;4896116;29;20202;-75
2024/01/01 04:05:31;;;;;;;10.53;1.97;;;6.20;99.90;;;;;;4897342;29;20236;-77
2024/01/01 04:07:57;;;;;;;4.40;1.87;;;6.20;99.90;;;;;;4899738;29;20456;-77
2024/01/01 04:10:22;;;;;;;6.10;1.97;;;6.20;99.90;;;;;;4895323;29;20187;-75
2024/01/01 04:12:48;;;;;;;7.40;2.40;;;6.20;99.90;;;;;;4901442;29;20194;-76
2024/01/01 04:15:14;;;;;;;6.00;1.70;;;6.20;99.90;;;;;;4902874;29;20235;-76
2024/01/01 04:17:39;;;;;;;10.07;3.63;;;6.10;99.90;;;;;;4903280;29;20435;-75
2024/01/01 04:20:10;;;;;;;6.97;2.10;;;6.10;99.90;;;;;;4902384;29;20214;-75
2024/01/01 04:22:42;;;;;;;5.53;1.80;;;6.10;99.90;;;;;;4896745;29;20274;-76
2024/01/01 04:25:09;;;;;;;10.40;1.83;;;6.10;99.90;;;;;;4901038;29;20522;-73
2024/01/01 04:27:35;;;;;;;12.60;3.20;;;6.10;99.90;;;;;;4898403;29;20473;-77
2024/01/01 04:30:00;;;;;;;8.53;2.30;;;6.20;99.90;;;;;;4877238;29;20423;-74
2024/01/01 04:32:26;;;;;;;11.30;2.80;;;6.10;99.90;;;;;;4895577;29;20432;-75
2024/01/01 04:34:52;;;;;;;12.87;3.70;;;6.10;99.90;;;;;;4900614;29;20190;-76
2024/01/01 04:37:18;;;;;;;14.40;5.30;;;6.10;99.90;;;;;;4883903;29;20202;-75
2024/01/01 04:39:43;;;;;;;6.13;2.00;;;6.10;99.90;;;;;;4899107;29;20424;-73
2024/01/01 04:42:09;;;;;;;6.13;2.17;;;6.00;99.90;;;;;;4898566;29;20198;-74
2024/01/01 04:44:35;;;;;;;8.13;2.60;;;6.00;99.90;;;;;;4900248;29;20246;-76
2024/01/01 04:47:02;;;;;;;12.10;3.00;;;6.00;99.90;;;;;;4868044;29;20220;-76
2024/01/01 04:49:27;;;;;;;11.00;2.20;;;6.00;99.90;;;;;;4895920;29;20223;-74
2024/01/01 04:51:53;;;;;;;10.97;2.73;;;6.00;99.90;;;;;;4896389;29;20421;-74
2024/01/01 04:54:19;;;;;;;8.20;1.90;;;6.00;99.90;;;;;;4893412;29;20187;-74
2024/01/01 04:56:44;;;;;;;16.60;3.50;;;6.00;99.90;;;;;;4901193;29;20299;-75
2024/01/01 04:59:10;;;;;;;13.10;2.90;;;6.00;99.90;;;;;;4881614;29;20259;-74
2024/01/01 05:01:35;;;;;;;19.20;3.73;;;6.00;99.90;;;;;;4883090;29;20199;-74
2024/01/01 05:04:01;;;;;;;10.30;2.47;;;6.00;99.90;;;;;;4898858;29;20615;-73
2024/01/01 05:06:27;;;;;;;13.90;3.40;;;6.00;99.90;;;;;;4894626;29;20222;-75
2024/01/01 05:08:52;;;;;;;9.57;2.70;;;6.00;99.90;;;;;;4902010;29;20229;-75
2024/01/01 05:11:18;;;;;;;11.47;3.17;;;6.00;99.90;;;;;;4891459;29;20235;-74
2024/01/01 05:13:43;;;;;;;10.47;2.00;;;6.00;99.90;;;;;;4890229;29;20192;-74
2024/01/01 05:16:12;;;;;;;16.30;2.90;;;6.00;99.90;;;;;;4895237;29;20295;-73
2024/01/01 05:18:38;;;;;;;6.90;2.70;;;6.00;99.90;;;;;;4896433;29;20203;-73
2024/01/01 05:21:05;;;;;;;13.27;2.50;;;6.10;99.90;;;;;;4898845;29;20439;-74
2024/01/01 05:23:30;;;;;;;10.63;2.67;;;6.10;99.90;;;;;;4907657;29;20199;-77
2024/01/01 05:25:56;;;;;;;5.97;2.67;;;6.10;99.90;;;;;;4892377;29;20595;-75
2024/01/01 05:28:21;;;;;;;11.30;2.30;;;6.10;99.90;;;;;;4897701;29;20214;-73
2024/01/01 05:30:47;;;;;;;11.67;2.43;;;6.10;99.90;;;;;;4894442;29;20190;-74
2024/01/01 05:33:13;;;;;;;18.87;3.00;;;6.10;99.90;;;;;;4904436;29;20188;-74
2024/01/01 05:35:39;;;;;;;7.20;3.23;;;6.00;99.90;;;;;;4904489;29;20275;-78
2024/01/01 05:38:04;;;;;;;9.10;2.93;;;6.00;99.90;;;;;;4903286;29;20197;-74
2024/01/01 05:40:30;;;;;;;16.67;3.60;;;6.00;99.90;;;;;;4892202;29;20753;-74
2024/01/01 05:42:55;;;;;;;9.83;2.60;;;6.00;99.90;;;;;;4894002;29;20226;-74
2024/01/01 05:45:21;;;;;;;18.77;3.50;;;6.00;99.90;;;;;;4895782;29;20607;-75
2024/01/01 05:47:47;;;;;;;35.33;4.10;;;6.00;99.90;;;;;;4887851;29;20610;-74
2024/01/01 05:50:12;;;;;;;14.03;3.67;;;6.00;99.90;;;;;;4894559;29;20184;-75
2024/01/01 05:52:38;;;;;;;9.47;2.90;;;6.00;99.90;;;;;;4898522;29;20635;-75
2024/01/01 05:55:04;;;;;;;12.17;2.97;;;6.10;99.90;;;;;;4876547;29;20219;-74
2024/01/01 05:57:30;;;;;;;19.13;3.97;;;6.10;99.90;;;;;;4894783;29;20211;-73
2024/01/01 05:59:55;;;;;;;13.73;3.93;;;6.10;99.90;;;;;;4894063;29;20496;-73
2024/01/01 06:02:21;;;;;;;11.93;2.80;;;6.20;99.90;;;;;;4882769;29;20203;-75
2024/01/01 06:04:47;;;;;;;17.43;2.93;;;6.20;99.90;;;;;;4897432;29;20205;-74
2024/01/01 06:07:12;;;;;;;11.33;3.07;;;6.20;99.90;;;;;;4895396;29;20218;-74
2024/01/01 06:09:38;;;;;;;14.93;3.50;;;6.30;99.90;;;;;;4910669;29;20202;-73
2024/01/01 06:12:04;;;;;;;12.27;3.13;;;6.40;99.90;;;;;;4896275;29;20203;-74
2024/01/01 06:14:30;;;;;;;11.13;4.20;;;6.50;99.90;;;;;;4899575;29;20214;-75
2024/01/01 06:16:57;;;;;;;13.93;2.80;;;6.70;99.90;;;;;;4895406;29;20744;-74
2024/01/01 06:19:22;;;;;;;8.27;2.80;;;6.90;99.90;;;;;;4894558;29;20203;-73
2024/01/01 06:21:48;;;;;;;16.40;3.23;;;7.10;99.90;;;;;;4897554;29;20856;-73
2024/01/01 06:24:14;;;;;;;9.33;2.53;;;7.40;99.90;;;;;;4893352;29;20286;-73
2024/01/01 06:26:39;;;;;;;9.27;3.00;;;7.60;99.90;;;;;;4893099;29;20259;-75
2024/01/01 06:29:05;;;;;;;15.43;3.83;;;7.70;99.90;;;;;;4886876;29;20235;-74
2024/01/01 06:31:30;;;;;;;16.43;3.73;;;7.80;99.90;;;;;;4895114;29;20631;-74
2024/01/01 06:33:56;;;;;;;11.87;2.43;;;7.90;99.90;;;;;;4886623;29;20290;-73
2024/01/01 06:36:22;;;;;;;13.37;3.20;;;8.00;99.90;;;;;;4899065;29;20463;-72
2024/01/01 06:38:47;;;;;;;18.83;3.77;;;8.10;99.90;;;;;;4904666;29;20467;-74
2024/01/01 06:41:14;;;;;;;11.83;3.23;;;8.10;99.90;;;;;;4902496;29;20335;-74
2024/01/01 06:43:40;;;;;;;16.27;4.03;;;8.20;99.90;;;;;;4906481;29;20255;-74
2024/01/01 06:46:05;;;;;;;7.87;2.30;;;8.20;99.90;;;;;;4904281;29;20459;-73
2024/01/01 06:48:31;;;;;;;8.07;2.50;;;8.30;99.90;;;;;;4906907;29;20215;-74
2024/01/01 06:50:57;;;;;;;14.77;2.60;;;8.30;99.90;;;;;;4900127;29;20240;-75
2024/01/01 06:53:23;;;;;;;19.90;2.97;;;8.30;99.90;;;;;;4902485;29;20195;-74
2024/01/01 06:55:48;;;;;;;6.67;2.43;;;8.30;99.90;;;;;;4903251;29;20224;-73
2024/01/01 06:58:14;;;;;;;11.10;2.50;;;8.30;99.90;;;;;;4892682;29;20711;-73
2024/01/01 07:00:39;;;;;;;6.43;2.10;;;8.30;99.90;;;;;;4893129;29;20239;-74
2024/01/01 07:03:05;;;;;;;8.90;2.50;;;8.30;99.90;;;;;;4896320;29;20195;-73
2024/01/01 07:05:30;;;;;;;8.23;1.97;;;8.20;99.90;;;;;;4897312;29;20226;-73
2024/01/01 07:07:56;;;;;;;15.87;3.10;;;8.20;99.90;;;;;;4901666;29;20219;-72
2024/01/01 07:10:22;;;;;;;13.07;2.90;;;8.20;99.90;;;;;;4902937;29;20228;-73
2024/01/01 07:12:47;;;;;;;12.30;3.20;;;8.20;99.90;;;;;;4904072;29;20237;-74
2024/01/01 07:15:13;;;;;;;13.03;2.97;;;8.10;99.90;;;;;;4875786;29;20317;-75
2024/01/01 07:17:38;;;;;;;12.93;2.43;;;8.20;99.90;;;;;;4900209;29;20191;-74
2024/01/01 07:20:05;;;;;;;14.73;2.70;;;8.10;99.90;;;;;;4896633;29;20172;-74
2024/01/01 07:22:30;;;;;;;8.83;3.10;;;8.10;99.90;;;;;;4892291;29;20196;-74
2024/01/01 07:24:56;;;;;;;12.00;3.10;;;8.10;99.90;;;;;;4882581;29;20415;-73
2024/01/01 07:27:21;;;;;;;7.80;3.20;;;8.10;99.90;;;;;;4901216;29;20230;-72
2024/01/01 07:29:47;;;;;;;6.40;2.10;;;8.10;99.90;;;;;;4898366;29;20190;-73
2024/01/01 07:32:13;;;;;;;10.73;2.37;;;8.10;99.90;;;;;;4899450;29;20499;-74
2024/01/01 07:34:39;;;;;;;6.10;2.67;;;8.10;99.90;;;;;;4898124;29;20214;-74
2024/01/01 07:37:05;;;;;;;5.50;1.80;;;8.10;99.90;;;;;;4891803;29;20516;-74
2024/01/01 07:39:31;;;;;;;9.80;2.87;;;8.10;99.90;;;;;;4901258;29;20756;-75
2024/01/01 07:41:57;;;;;;;8.80;2.30;;;8.10;99.90;;;;;;4904488;29;20782;-74
2024/01/01 07:44:23;;;;;;;7.73;2.30;;;8.10;99.90;;;;;;4898829;29;20435;-73
2024/01/01 07:46:49;;;;;;;4.93;1.90;;;8.00;99.90;;;;;;4892900;29;20554;-75
2024/01/01 07:49:15;;;;;;;9.70;2.03;;;8.00;99.90;;;;;;4898232;29;20224;-74
2024/01/01 07:51:40;;;;;;;6.10;2.00;;;7.90;99.90;;;;;;4899838;29;20176;-74
2024/01/01 07:54:06;;;;;;;5.10;1.57;;;7.90;99.90;;;;;;4901296;29;20491;-74
2024/01/01 07:56:32;;;;;;;6.53;1.97;;;7.90;99.90;;;;;;4897498;29;20210;-73
2024/01/01 07:58:57;;;;;;;7.57;1.40;;;7.90;99.90;;;;;;4899771;29;20215;-73
2024/01/01 08:01:24;;;;;;;5.70;1.30;;;7.90;99.90;;;;;;4908426;29;20234;-72
2024/01/01 08:03:49;;;;;;;8.17;3.60;;;7.80;99.90;;;;;;4884327;29;20200;-73
2024/01/01 08:06:17;;;;;;;5.50;1.70;;;7.80;99.90;;;;;;4897741;29;20463;-75
2024/01/01 08:08:43;;;;;;;7.90;1.90;;;7.80;99.90;;;;;;4901494;29;20214;-74
2024/01/01 08:11:09;;;;;;;5.83;1.60;;;7.80;99.90;;;;;;4902079;29;20730;-74
2024/01/01 08:13:36;;;;;;;3.97;1.23;;;7.80;99.90;;;;;;4878524;29;20220;-73
2024/01/01 08:16:02;;;;;;;9.80;1.60;;;7.80;99.90;;;;;;4894558;29;20251;-74
2024/01/01 08:18:27;;;;;;;4.20;1.10;;;7.90;99.90;;;;;;4894094;29;20432;-74
2024/01/01 08:20:53;;;;;;;5.00;1.33;;;7.90;99.90;;;;;;4905535;29;20202;-74
2024/01/01 08:23:19;;;;;;;2.60;0.90;;;7.90;99.90;;;;;;4902210;29;20191;-73
2024/01/01 08:25:45;;;;;;;1.93;1.27;;;7.90;99.90;;;;;;4899387;29;20463;-73
2024/01/01 08:28:10;;;;;;;4.53;1.20;;;7.90;99.90;;;;;;4879963;29;20287;-74
2024/01/01 08:30:38;;;;;;;3.00;1.33;;;8.00;99.90;;;;;;4875180;29;20269;-74
2024/01/01 08:33:03;;;;;;;8.13;1.90;;;8.00;99.90;;;;;;4880074;29;20183;-74
2024/01/01 08:35:30;;;;;;;2.20;1.10;;;8.10;99.90;;;;;;4875504;29;20458;-74
2024/01/01 08:37:55;;;;;;;6.33;1.20;;;8.10;99.90;;;;;;4898531;29;20207;-73
2024/01/01 08:40:21;;;;;;;3.50;1.07;;;8.10;99.90;;;;;;4900313;29;20510;-74
2024/01/01 08:42:47;;;;;;;2.30;1.13;;;8.10;99.90;;;;;;4857640;29;20228;-73
2024/01/01 08:45:13;;;;;;;3.87;1.47;;;8.10;99.90;;;;;;4891790;29;20294;-75
2024/01/01 08:47:40;;;;;;;4.33;1.40;;;8.10;99.90;;;;;;4895742;29;20468;-75
2024/01/01 08:50:06;;;;;;;3.17;1.20;;;8.10;99.90;;;;;;4875389;29;20223;-73
2024/01/01 08:52:32;;;;;;;2.20;0.90;;;8.10;99.90;;;;;;4897809;29;20436;-75
2024/01/01 08:54:58;;;;;;;1.73;0.77;;;8.10;99.90;;;;;;4899095;29;20486;-74
2024/01/01 08:57:23;;;;;;;3.53;1.20;;;8.10;99.90;;;;;;4897354;29;20594;-76
2024/01/01 08:59:49;;;;;;;3.33;2.07;;;8.10;99.90;;;;;;4895901;29;20219;-75
2024/01/01 09:02:15;;;;;;;3.13;1.13;;;8.10;99.90;;;;;;4895176;29;20296;-73
2024/01/01 09:04:41;;;;;;;3.03;1.20;;;8.10;99.90;;;;;;4897589;29;20290;-74
2024/01/01 09:07:06;;;;;;;1.37;0.70;;;8.10;99.90;;;;;;4882657;29;20539;-75
2024/01/01 09:09:32;;;;;;;1.83;0.90;;;8.10;99.90;;;;;;4894559;29;20191;-74
2024/01/01 09:11:57;;;;;;;3.37;1.63;;;8.20;99.90;;;;;;4890757;29;20273;-75
2024/01/01 09:14:23;;;;;;;2.50;0.80;;;8.20;99.90;;;;;;4894928;29;20231;-74
2024/01/01 09:16:50;;;;;;;3.40;0.90;;;8.20;99.90;;;;;;4888833;29;20254;-74
2024/01/01 09:19:16;;;;;;;3.47;0.83;;;8.30;99.90;;;;;;4892116;29;20184;-73
2024/01/01 09:21:41;;;;;;;2.27;0.93;;;8.30;99.90;;;;;;4891555;29;20427;-75
2024/01/01 09:24:09;;;;;;;1.77;0.77;;;8.30;99.90;;;;;;4897028;29;20568;-74
2024/01/01 09:26:38;;;;;;;2.50;0.93;;;8.30;99.90;;;;;;4900023;29;20220;-75
2024/01/01 09:29:04;;;;;;;1.50;0.63;;;8.30;99.90;;;;;;4899465;29;20475;-73
2024/01/01 09:31:31;;;;;;;2.93;1.10;;;8.30;99.90;;;;;;4892558;29;20448;-75
2024/01/01 09:34:00;;;;;;;2.03;0.90;;;8.30;99.90;;;;;;4897212;29;20413;-73
2024/01/01 09:36:30;;;;;;;3.90;1.10;;;8.30;99.90;;;;;;4898299;29;20547;-74
2024/01/01 09:38:56;;;;;;;3.07;1.00;;;8.30;99.90;;;;;;4897280;29;20882;-75
2024/01/01 09:41:26;;;;;;;1.30;0.77;;;8.30;99.90;;;;;;4890932;29;20490;-74
2024/01/01 09:43:55;;;;;;;6.03;1.00;;;8.30;99.90;;;;;;4897361;29;20417;-75
2024/01/01 09:46:23;;;;;;;5.57;1.17;;;8.30;99.90;;;;;;4886898;29;20467;-75
2024/01/01 09:48:49;;;;;;;2.50;0.90;;;8.30;99.90;;;;;;4896259;29;20495;-75
2024/01/01 09:51:14;;;;;;;3.93;0.97;;;8.30;99.90;;;;;;4890281;29;20428;-76
2024/01/01 09:53:43;;;;;;;2.97;0.80;;;8.30;99.90;;;;;;4905094;29;20435;-75
2024/01/01 09:56:09;;;;;;;2.83;1.23;;;8.30;99.90;;;;;;4906388;29;20238;-76
2024/01/01 09:58:44;;;;;;;3.73;1.20;;;8.30;99.90;;;;;;4875903;29;20586;-75
2024/01/01 10:01:12;;;;;;;3.17;1.13;;;8.40;99.90;;;;;;4873776;29;20191;-74
2024/01/01 10:03:39;;;;;;;6.23;1.03;;;8.40;99.90;;;;;;4896099;29;20429;-75
2024/01/01 10:06:09;;;;;;;4.30;1.60;;;8.50;99.90;;;;;;4892226;29;20494;-75
2024/01/01 10:08:35;;;;;;;2.77;1.07;;;8.50;99.90;;;;;;4895004;29;20462;-74
2024/01/01 10:11:20;;;;;;;3.10;1.00;;;8.60;99.90;;;;;;4901769;29;20458;-73
2024/01/01 10:13:46;;;;;;;4.93;1.20;;;8.50;99.90;;;;;;4897750;29;20428;-78
2024/01/01 10:16:26;;;;;;;2.93;0.90;;;8.60;99.90;;;;;;4870069;29;20532;-75
2024/01/01 10:18:56;;;;;;;2.80;1.07;;;8.60;99.90;;;;;;4862984;29;20481;-75
2024/01/01 10:21:32;;;;;;;3.20;1.00;;;8.70;99.90;;;;;;4877845;29;20452;-74
2024/01/01 10:23:59;;;;;;;3.17;1.20;;;8.70;99.90;;;;;;4866350;29;20856;-76
2024/01/01 10:26:25;;;;;;;7.93;2.10;;;8.70;99.90;;;;;;4877110;29;20453;-76
2024/01/01 10:28:51;;;;;;;6.50;3.23;;;8.70;99.90;;;;;;4860925;29;20469;-75
2024/01/01 10:31:17;;;;;;;4.10;1.23;;;8.70;99.90;;;;;;4861005;29;20434;-76
2024/01/01 10:33:44;;;;;;;3.70;1.47;;;8.70;99.90;;;;;;4883528;29;20451;-75
2024/01/01 10:36:13;;;;;;;3.40;1.00;;;8.70;99.90;;;;;;4887929;29;20441;-74
2024/01/01 10:38:40;;;;;;;3.37;1.60;;;8.80;99.90;;;;;;4878250;29;20797;-75
2024/01/01 10:41:07;;;;;;;4.50;1.13;;;8.80;99.90;;;;;;4877658;29;20425;-74
2024/01/01 10:43:35;;;;;;;4.17;1.40;;;8.80;99.90;;;;;;4879587;29;20428;-75
2024/01/01 10:46:06;;;;;;;5.27;2.20;;;8.80;99.90;;;;;;4866762;29;20770;-75
2024/01/01 10:48:32;;;;;;;5.40;1.97;;;8.80;99.90;;;;;;4878095;29;20480;-75
2024/01/01 10:51:07;;;;;;;3.33;1.70;;;8.90;99.90;;;;;;4876377;29;20409;-75
2024/01/01 10:53:53;;;;;;;4.93;1.50;;;8.90;99.90;;;;;;4879723;29;20430;-75
2024/01/01 10:56:48;;;;;;;10.20;2.13;;;8.90;99.90;;;;;;4876909;29;20449;-76
2024/01/01 10:59:18;;;;;;;8.90;1.77;;;8.90;99.90;;;;;;4878175;29;20476;-74
2024/01/01 11:01:45;;;;;;;7.37;1.70;;;8.90;99.90;;;;;;4839064;29;20498;-79
2024/01/01 11:04:12;;;;;;;9.53;1.97;;;8.90;99.90;;;;;;4859283;29;20489;-76
2024/01/01 11:06:43;;;;;;;4.00;1.40;;;9.00;99.90;;;;;;4884174;29;20448;-75
2024/01/01 11:09:21;;;;;;;6.40;1.90;;;9.10;99.90;;;;;;4881062;29;20950;-75
2024/01/01 11:11:51;;;;;;;5.03;1.53;;;9.20;99.90;;;;;;4874078;29;20425;-75
2024/01/01 11:14:27;;;;;;;5.90;1.90;;;9.30;99.90;;;;;;4883047;29;20420;-75
2024/01/01 11:16:54;;;;;;;17.77;2.80;;;9.50;99.90;;;;;;4894237;29;20470;-75
2024/01/01 11:19:44;;;;;;;6.70;1.73;;;9.50;99.90;;;;;;4902813;29;20418;-75
2024/01/01 11:22:18;;;;;;;3.27;1.70;;;9.60;99.90;;;;;;4889605;29;20451;-74
2024/01/01 11:24:45;;;;;;;3.97;1.77;;;9.50;99.90;;;;;;4900523;29;20424;-76
2024/01/01 11:27:27;;;;;;;6.73;1.17;;;9.50;99.90;;;;;;4885061;29;20504;-76
2024/01/01 11:29:53;;;;;;;9.43;2.37;;;9.50;99.80;;;;;;4904532;29;20431;-76
2024/01/01 11:32:19;;;;;;;4.57;1.33;;;9.50;99.30;;;;;;4885668;29;20907;-74
2024/01/01 11:35:07;;;;;;;6.80;1.30;;;9.40;99.80;;;;;;4897569;29;20421;-75
2024/01/01 11:37:34;;;;;;;5.80;1.57;;;9.30;99.80;;;;;;4904484;29;20483;-75
2024/01/01 11:40:02;;;;;;;8.70;1.57;;;9.20;99.50;;;;;;4886246;29;20416;-75
2024/01/01 11:42:28;;;;;;;2.80;1.90;;;9.20;99.90;;;;;;4913223;29;20447;-74
2024/01/01 11:45:08;;;;;;;8.60;1.50;;;9.20;99.90;;;;;;4893255;29;20424;-76
2024/01/01 11:47:34;;;;;;;7.53;1.73;;;9.30;99.80;;;;;;4866437;29;20965;-75
2024/01/01 11:50:03;;;;;;;4.03;1.60;;;9.30;99.90;;;;;;4902142;29;20416;-75
2024/01/01 11:52:30;;;;;;;5.07;1.57;;;9.30;99.60;;;;;;4887291;29;20896;-76
2024/01/01 11:54:55;;;;;;;3.23;1.40;;;9.30;99.50;;;;;;4887178;29;20532;-75
2024/01/01 11:57:21;;;;;;;8.53;1.97;;;9.30;99.40;;;;;;4895689;29;20779;-75
2024/01/01 11:59:49;;;;;;;4.17;1.40;;;9.20;99.80;;;;;;4893025;29;20259;-76
2024/01/01 12:02:18;;;;;;;4.10;1.43;;;9.20;99.90;;;;;;4896523;29;20239;-73
2024/01/01 12:04:50;;;;;;;4.03;1.40;;;9.20;99.90;;;;;;4897874;29;20499;-76
2024/01/01 12:07:33;;;;;;;7.00;2.23;;;9.20;99.90;;;;;;4895197;29;20475;-77
2024/01/01 12:10:09;;;;;;;3.70;1.40;;;9.30;99.90;;;;;;4900172;29;20415;-77
2024/01/01 12:12:39;;;;;;;7.30;2.10;;;9.20;99.90;;;;;;4882866;29;20988;-75
2024/01/01 12:15:15;;;;;;;6.67;1.90;;;9.20;99.90;;;;;;4894659;29;20527;-76
2024/01/01 12:17:52;;;;;;;7.33;1.80;;;9.30;99.60;;;;;;4890402;29;20450;-75
2024/01/01 12:20:23;;;;;;;7.20;1.77;;;9.40;98.90;;;;;;4875287;29;20420;-76
2024/01/01 12:22:49;;;;;;;9.50;2.00;;;9.40;98.70;;;;;;4901275;29;20452;-77
2024/01/01 12:25:19;;;;;;;9.10;2.17;;;9.40;98.40;;;;;;4902322;29;20463;-74
2024/01/01 12:28:06;;;;;;;5.90;2.13;;;9.40;97.90;;;;;;4874102;29;20866;-76
2024/01/01 12:30:33;;;;;;;8.67;2.57;;;9.40;98.30;;;;;;4888636;29;20552;-75
2024/01/01 12:32:59;;;;;;;9.40;2.20;;;9.30;98.20;;;;;;4893550;29;20435;-75
2024/01/01 12:35:25;;;;;;;7.77;3.07;;;9.40;98.20;;;;;;4885860;29;20471;-77
2024/01/01 12:37:53;;;;;;;8.50;2.23;;;9.30;98.10;;;;;;4897684;29;20423;-75
2024/01/01 12:40:18;;;;;;;6.63;2.37;;;9.40;98.20;;;;;;4883482;29;20183;-75
2024/01/01 12:42:46;;;;;;;6.33;2.20;;;9.40;98.20;;;;;;4898287;29;20492;-75
2024/01/01 12:45:12;;;;;;;8.30;2.80;;;9.40;98.20;;;;;;4882280;29;20227;-75
2024/01/01 12:47:39;;;;;;;12.50;2.63;;;9.40;97.90;;;;;;4883640;29;20459;-75
2024/01/01 12:50:06;;;;;;;7.20;2.30;;;9.40;97.70;;;;;;4891538;29;20507;-76
2024/01/01 12:52:31;;;;;;;10.63;3.93;;;9.30;98.00;;;;;;4881525;29;20431;-75